Time;durP1;ratioP1;P1;durP2;ratioP2;P2;SDS_P1;SDS_P2;PMS_P1;PMS_P2;Temp;Humidity;BMP_temperature;BMP_pressure;BME280_temperature;BME280_humidity;BME280_pressure;Samples;Min_cycle;Max_cycle;Signal;HPM_P1;HPM_P2
2023/10/15 00:00:18;;;;;;;7.05;6.35;;;16.70;99.90;;;;;;5060178;28;20252;-71
2023/10/15 00:02:46;;;;;;;6.38;5.78;;;16.60;99.90;;;;;;5064412;28;20210;-71
2023/10/15 00:05:15;;;;;;;7.07;6.28;;;16.60;99.90;;;;;;5060831;28;20669;-71
2023/10/15 00:07:43;;;;;;;7.22;6.63;;;16.60;99.90;;;;;;5066211;28;20286;-71
2023/10/15 00:10:11;;;;;;;7.28;6.57;;;16.60;99.90;;;;;;5060259;28;20268;-72
2023/10/15 00:12:39;;;;;;;7.07;6.40;;;16.60;99.90;;;;;;5056914;28;20290;-73
2023/10/15 00:15:08;;;;;;;6.82;6.22;;;16.60;99.90;;;;;;5057700;28;20210;-73
2023/10/15 00:17:35;;;;;;;6.40;5.80;;;16.60;99.90;;;;;;5055602;28;20298;-70
2023/10/15 00:20:10;;;;;;;6.50;5.90;;;16.60;99.90;;;;;;5056878;28;20300;-70
2023/10/15 00:22:37;;;;;;;7.03;6.43;;;16.60;99.90;;;;;;5055561;28;20555;-70
2023/10/15 00:25:09;;;;;;;6.45;5.85;;;16.60;99.90;;;;;;5058233;28;20198;-71
2023/10/15 00:27:37;;;;;;;7.38;6.78;;;16.60;99.90;;;;;;5066102;28;20361;-71
2023/10/15 00:30:06;;;;;;;9.10;8.15;;;16.50;99.90;;;;;;5088063;28;20218;-71
2023/10/15 00:32:33;;;;;;;9.20;8.40;;;16.60;99.90;;;;;;5055955;28;20715;-71
2023/10/15 00:35:00;;;;;;;7.95;7.25;;;16.40;99.90;;;;;;5059231;28;20344;-73
2023/10/15 00:37:27;;;;;;;10.80;8.40;;;16.30;99.90;;;;;;5056758;28;20281;-71
2023/10/15 00:39:58;;;;;;;10.52;9.55;;;16.20;99.90;;;;;;5057580;28;20237;-72
2023/10/15 00:42:30;;;;;;;10.60;9.50;;;16.00;99.90;;;;;;5054703;28;20207;-72
2023/10/15 00:44:58;;;;;;;11.38;10.18;;;15.80;99.90;;;;;;5052892;28;20278;-71
2023/10/15 00:47:25;;;;;;;9.82;8.88;;;15.70;99.90;;;;;;5055551;28;20428;-70
2023/10/15 00:49:53;;;;;;;8.05;7.32;;;15.60;99.90;;;;;;5054757;28;20249;-71
2023/10/15 00:52:29;;;;;;;8.40;7.40;;;15.60;99.90;;;;;;5053923;28;20194;-71
2023/10/15 00:54:57;;;;;;;8.25;7.45;;;15.70;99.90;;;;;;5059321;28;20335;-71
2023/10/15 00:57:41;;;;;;;8.45;7.63;;;15.80;99.90;;;;;;5052491;28;20786;-72
2023/10/15 01:00:36;;;;;;;8.68;7.75;;;15.80;99.90;;;;;;5055404;28;20783;-71
2023/10/15 01:03:02;;;;;;;6.97;6.38;;;15.70;99.90;;;;;;5057230;28;20263;-71
2023/10/15 01:05:33;;;;;;;10.27;9.18;;;15.70;99.90;;;;;;5054394;28;20676;-71
2023/10/15 01:08:03;;;;;;;12.30;11.05;;;15.80;99.90;;;;;;5058427;28;20210;-71
2023/10/15 01:10:36;;;;;;;11.73;10.50;;;15.70;99.90;;;;;;5056266;28;20219;-71
2023/10/15 01:13:15;;;;;;;9.15;8.25;;;15.60;99.90;;;;;;5057688;28;20742;-72
2023/10/15 01:15:43;;;;;;;8.90;7.75;;;15.50;99.90;;;;;;5055097;28;20275;-71
2023/10/15 01:18:10;;;;;;;7.93;7.22;;;15.50;99.90;;;;;;5059326;28;20194;-71
2023/10/15 01:20:40;;;;;;;7.50;6.90;;;15.60;99.90;;;;;;5055092;28;20328;-72
2023/10/15 01:23:07;;;;;;;7.82;7.13;;;15.60;99.90;;;;;;5056351;28;20202;-72
2023/10/15 01:25:45;;;;;;;7.05;6.40;;;15.60;99.90;;;;;;5054745;28;20191;-71
2023/10/15 01:28:13;;;;;;;6.78;5.93;;;15.60;99.90;;;;;;5057314;28;20370;-71
2023/10/15 01:30:41;;;;;;;6.70;6.03;;;15.70;99.90;;;;;;5052636;28;20218;-71
2023/10/15 01:33:10;;;;;;;7.32;6.70;;;15.70;99.90;;;;;;5054877;28;20297;-71
2023/10/15 01:35:38;;;;;;;6.82;6.22;;;15.70;99.90;;;;;;5055240;28;20240;-71
2023/10/15 01:38:10;;;;;;;6.70;5.97;;;15.70;99.90;;;;;;5053634;28;20293;-71
2023/10/15 01:40:44;;;;;;;7.00;6.40;;;15.70;99.90;;;;;;5056941;28;20301;-71
2023/10/15 01:43:14;;;;;;;6.47;5.97;;;15.60;99.90;;;;;;5056689;28;20213;-72
2023/10/15 01:45:47;;;;;;;6.75;6.15;;;15.60;99.90;;;;;;5054729;28;20283;-71
2023/10/15 01:48:18;;;;;;;6.50;5.90;;;15.60;99.90;;;;;;5052622;28;20289;-71
2023/10/15 01:50:49;;;;;;;6.15;5.65;;;15.60;99.90;;;;;;5058549;28;20231;-71
2023/10/15 01:53:16;;;;;;;6.38;5.78;;;15.60;99.90;;;;;;5054625;28;20291;-71
2023/10/15 01:55:54;;;;;;;6.43;5.82;;;15.60;99.90;;;;;;5052921;28;20222;-71
2023/10/15 01:58:24;;;;;;;6.78;6.18;;;15.50;99.90;;;;;;5054334;28;20198;-72
2023/10/15 02:00:52;;;;;;;7.10;6.50;;;15.50;99.90;;;;;;5050715;28;20225;-71
2023/10/15 02:03:19;;;;;;;6.97;6.38;;;15.50;99.90;;;;;;5051967;28;20199;-71
2023/10/15 02:05:46;;;;;;;7.22;6.50;;;15.50;99.90;;;;;;5054352;28;20195;-70
2023/10/15 02:08:23;;;;;;;6.88;6.20;;;15.40;99.90;;;;;;5057762;28;20256;-71
2023/10/15 02:10:52;;;;;;;6.85;6.25;;;15.40;99.90;;;;;;5053464;28;20226;-71
2023/10/15 02:13:20;;;;;;;7.18;6.47;;;15.40;99.90;;;;;;5059176;28;20198;-71
2023/10/15 02:15:49;;;;;;;6.90;6.22;;;15.30;99.90;;;;;;5054398;28;20440;-71
2023/10/15 02:18:18;;;;;;;6.75;6.15;;;15.30;99.90;;;;;;5055615;28;20205;-71
2023/10/15 02:20:46;;;;;;;6.88;6.18;;;15.20;99.90;;;;;;5053274;28;20965;-74
2023/10/15 02:23:15;;;;;;;7.00;6.40;;;15.20;99.90;;;;;;5058198;28;20198;-70
2023/10/15 02:25:46;;;;;;;7.03;6.32;;;15.20;99.90;;;;;;5051070;28;20672;-71
2023/10/15 02:28:20;;;;;;;6.88;6.20;;;15.30;99.90;;;;;;5049827;28;20749;-71
2023/10/15 02:30:47;;;;;;;6.90;6.30;;;15.20;99.90;;;;;;5079529;28;20230;-70
2023/10/15 02:33:18;;;;;;;6.68;5.97;;;15.20;99.90;;;;;;5078054;28;20205;-71
2023/10/15 02:35:47;;;;;;;5.93;5.43;;;15.20;99.90;;;;;;5071211;28;20231;-72
2023/10/15 02:38:15;;;;;;;7.05;6.45;;;15.10;99.90;;;;;;5064635;28;20210;-71
2023/10/15 02:43:36;;;;;;;7.28;6.57;;;15.10;99.90;;;;;;5039577;28;20194;-71
2023/10/15 02:46:17;;;;;;;6.93;6.32;;;15.10;99.90;;;;;;5054446;28;20652;-71
2023/10/15 02:48:44;;;;;;;6.32;5.80;;;15.10;99.90;;;;;;5057309;28;20202;-70
2023/10/15 02:51:12;;;;;;;6.07;5.57;;;15.10;99.90;;;;;;5052805;28;20771;-71
2023/10/15 02:53:40;;;;;;;6.05;5.55;;;15.00;99.90;;;;;;5055621;28;20225;-70
2023/10/15 02:56:11;;;;;;;5.75;5.25;;;15.10;99.90;;;;;;5053959;28;20220;-71
2023/10/15 02:58:40;;;;;;;5.93;5.38;;;15.00;99.90;;;;;;5055536;28;20292;-70
2023/10/15 03:01:17;;;;;;;5.68;5.18;;;15.10;99.90;;;;;;5053489;28;20267;-73
2023/10/15 03:03:49;;;;;;;6.03;5.53;;;15.10;99.90;;;;;;5051303;28;20199;-71
2023/10/15 03:06:22;;;;;;;5.97;5.47;;;15.10;99.90;;;;;;5056154;28;21038;-71
2023/10/15 03:08:51;;;;;;;6.78;5.45;;;15.10;99.90;;;;;;5054851;28;20198;-71
2023/10/15 03:11:19;;;;;;;5.20;4.80;;;15.20;99.90;;;;;;5054235;28;20745;-70
2023/10/15 03:13:53;;;;;;;5.50;5.00;;;15.10;99.90;;;;;;5054782;28;20198;-70
2023/10/15 03:16:21;;;;;;;5.75;5.15;;;15.10;99.90;;;;;;5060385;28;20221;-71
2023/10/15 03:18:49;;;;;;;5.90;5.40;;;15.10;99.90;;;;;;5053975;28;20194;-70
2023/10/15 03:21:26;;;;;;;6.53;5.90;;;15.10;99.90;;;;;;5051929;28;20306;-71
2023/10/15 03:23:55;;;;;;;5.63;5.15;;;15.10;99.90;;;;;;5053990;28;20435;-70
2023/10/15 03:26:23;;;;;;;5.50;5.10;;;15.10;99.90;;;;;;5058519;28;20580;-70
2023/10/15 03:28:58;;;;;;;5.53;5.03;;;15.10;99.90;;;;;;5053859;28;20257;-71
2023/10/15 03:31:27;;;;;;;5.53;4.95;;;15.20;99.90;;;;;;5050877;28;20628;-71
2023/10/15 03:34:16;;;;;;;4.97;4.57;;;15.10;99.90;;;;;;5056368;28;20237;-70
2023/10/15 03:36:47;;;;;;;5.03;4.63;;;15.10;99.90;;;;;;5055086;28;20377;-71
2023/10/15 03:39:24;;;;;;;5.13;4.72;;;15.10;99.90;;;;;;5048836;28;20255;-71
2023/10/15 03:41:54;;;;;;;5.10;4.60;;;15.10;99.90;;;;;;5053799;28;20218;-71
2023/10/15 03:44:31;;;;;;;5.18;4.78;;;15.00;99.90;;;;;;5054892;28;20263;-71
2023/10/15 03:47:04;;;;;;;4.97;4.57;;;15.00;99.90;;;;;;5054188;28;20202;-71
2023/10/15 03:49:31;;;;;;;5.95;4.72;;;15.00;99.90;;;;;;5050706;28;20229;-71
2023/10/15 03:51:58;;;;;;;5.47;4.97;;;15.00;99.90;;;;;;5056707;28;20233;-71
2023/10/15 03:54:25;;;;;;;5.63;5.13;;;15.00;99.90;;;;;;5056440;28;20206;-70
2023/10/15 03:56:53;;;;;;;5.25;4.80;;;14.90;99.90;;;;;;5056997;28;20214;-70
2023/10/15 03:59:21;;;;;;;5.13;4.68;;;14.90;99.90;;;;;;5057108;28;20252;-70
2023/10/15 04:01:49;;;;;;;5.00;4.60;;;14.90;99.90;;;;;;5057678;28;20242;-73
2023/10/15 04:04:20;;;;;;;5.82;5.32;;;14.90;99.90;;;;;;5059768;28;20281;-71
2023/10/15 04:06:52;;;;;;;5.50;5.00;;;14.80;99.90;;;;;;5059877;28;20684;-71
2023/10/15 04:09:23;;;;;;;5.18;4.78;;;14.80;99.90;;;;;;5057144;28;20286;-71
2023/10/15 04:11:51;;;;;;;5.60;5.10;;;14.70;99.90;;;;;;5060639;28;20221;-71
2023/10/15 04:14:26;;;;;;;5.63;5.13;;;14.70;99.90;;;;;;5057128;28;20260;-71
2023/10/15 04:16:54;;;;;;;5.15;4.65;;;14.70;99.90;;;;;;5057911;28;20218;-70
2023/10/15 04:19:25;;;;;;;4.97;4.45;;;14.70;99.90;;;;;;5057806;28;20210;-71
2023/10/15 04:21:59;;;;;;;5.18;4.78;;;14.70;99.90;;;;;;5057192;28;20226;-71
2023/10/15 04:24:36;;;;;;;5.75;5.25;;;14.60;99.90;;;;;;5053631;28;20302;-70
2023/10/15 04:27:06;;;;;;;5.57;5.07;;;14.50;99.90;;;;;;5056832;28;20201;-71
2023/10/15 04:29:43;;;;;;;5.22;4.72;;;14.40;99.90;;;;;;5054720;28;20206;-71
2023/10/15 04:32:17;;;;;;;4.90;4.50;;;14.40;99.90;;;;;;5064627;28;20202;-74
2023/10/15 04:34:46;;;;;;;4.53;4.13;;;14.40;99.90;;;;;;5077354;28;20203;-72
2023/10/15 04:37:20;;;;;;;4.50;4.10;;;14.30;99.90;;;;;;5057665;28;20218;-70
2023/10/15 04:39:51;;;;;;;5.20;4.80;;;14.40;99.90;;;;;;5057336;28;20695;-70
2023/10/15 04:42:28;;;;;;;4.72;4.32;;;14.40;99.90;;;;;;5057127;28;20195;-71
2023/10/15 04:44:55;;;;;;;5.30;4.85;;;14.40;99.90;;;;;;5056125;28;20704;-71
2023/10/15 04:47:28;;;;;;;5.10;4.70;;;14.40;99.90;;;;;;5059016;28;20716;-71
2023/10/15 04:49:57;;;;;;;5.18;4.68;;;14.40;99.90;;;;;;5057075;28;20242;-71
2023/10/15 04:52:24;;;;;;;4.82;4.32;;;14.40;99.90;;;;;;5055365;28;20316;-71
2023/10/15 04:54:55;;;;;;;4.78;4.38;;;14.40;99.90;;;;;;5053860;28;20191;-71
2023/10/15 04:57:23;;;;;;;4.85;4.45;;;14.40;99.90;;;;;;5055505;28;20218;-71
2023/10/15 04:59:50;;;;;;;4.55;4.15;;;14.40;99.90;;;;;;5060090;28;20194;-71
2023/10/15 05:02:18;;;;;;;4.07;3.78;;;14.40;99.90;;;;;;5057968;28;20261;-71
2023/10/15 05:04:47;;;;;;;3.97;3.65;;;14.30;99.90;;;;;;5057442;28;20205;-70
2023/10/15 05:07:15;;;;;;;4.47;4.07;;;14.30;99.90;;;;;;5057031;28;20747;-71
2023/10/15 05:09:44;;;;;;;4.85;4.40;;;14.30;99.90;;;;;;5056180;28;20202;-71
2023/10/15 05:12:12;;;;;;;4.65;4.18;;;14.30;99.90;;;;;;5055640;28;20289;-70
2023/10/15 05:14:39;;;;;;;4.57;4.15;;;14.30;99.90;;;;;;5055418;28;20255;-70
2023/10/15 05:17:06;;;;;;;4.30;3.85;;;14.30;99.90;;;;;;5060434;28;20222;-70
2023/10/15 05:19:33;;;;;;;4.43;4.13;;;14.30;99.90;;;;;;5054095;28;20890;-71
2023/10/15 05:22:01;;;;;;;3.67;3.38;;;14.20;99.90;;;;;;5058696;28;20231;-71
2023/10/15 05:24:30;;;;;;;4.00;3.70;;;14.20;99.90;;;;;;5051433;28;20199;-70
2023/10/15 05:26:57;;;;;;;4.00;3.70;;;14.20;99.90;;;;;;5056883;28;20605;-71
2023/10/15 05:29:24;;;;;;;4.10;3.65;;;14.20;99.90;;;;;;5053525;28;20206;-71
2023/10/15 05:31:51;;;;;;;4.00;3.70;;;14.20;99.90;;;;;;5057766;28;20244;-71
2023/10/15 05:34:19;;;;;;;3.78;3.47;;;14.20;99.90;;;;;;5055817;28;20256;-71
2023/10/15 05:36:46;;;;;;;3.58;3.38;;;14.20;99.90;;;;;;5054565;28;20344;-71
2023/10/15 05:39:16;;;;;;;3.90;3.55;;;14.20;99.90;;;;;;5054004;28;20253;-71
2023/10/15 05:41:43;;;;;;;4.05;3.75;;;14.20;99.90;;;;;;5054490;28;20225;-72
2023/10/15 05:44:10;;;;;;;3.85;3.50;;;14.20;99.90;;;;;;5057386;28;20195;-71
2023/10/15 05:46:36;;;;;;;3.47;3.20;;;14.20;99.90;;;;;;5052812;28;20198;-70
2023/10/15 05:49:05;;;;;;;3.67;3.38;;;14.30;99.90;;;;;;5056302;28;20194;-71
2023/10/15 05:51:32;;;;;;;3.80;3.50;;;14.20;99.90;;;;;;5060033;28;20313;-71
2023/10/15 05:53:59;;;;;;;3.90;3.60;;;14.30;99.90;;;;;;5055246;28;20206;-71
2023/10/15 05:56:28;;;;;;;3.83;3.53;;;14.30;99.90;;;;;;5054554;28;20325;-70
2023/10/15 05:58:55;;;;;;;3.58;3.28;;;14.20;99.90;;;;;;5057209;28;20202;-71
2023/10/15 06:01:23;;;;;;;4.38;3.67;;;14.20;99.90;;;;;;5055842;28;20751;-72
2023/10/15 06:03:50;;;;;;;4.00;3.70;;;14.30;99.90;;;;;;5075381;28;20194;-71
2023/10/15 06:06:16;;;;;;;3.55;3.25;;;14.30;99.90;;;;;;5075803;28;20221;-76
2023/10/15 06:08:44;;;;;;;3.78;3.47;;;14.30;99.90;;;;;;5065156;28;20199;-71
2023/10/15 06:11:12;;;;;;;3.90;3.60;;;14.40;99.90;;;;;;5055715;28;20726;-70
2023/10/15 06:13:40;;;;;;;3.60;3.30;;;14.40;99.90;;;;;;5063924;28;20201;-71
2023/10/15 06:16:07;;;;;;;3.78;3.47;;;14.40;99.90;;;;;;5062951;28;20258;-71
2023/10/15 06:18:34;;;;;;;3.65;3.35;;;14.30;99.90;;;;;;5054295;28;20230;-70
2023/10/15 06:21:01;;;;;;;7.18;4.13;;;14.30;99.90;;;;;;5057367;28;20280;-70
2023/10/15 06:23:28;;;;;;;3.90;3.40;;;14.30;99.90;;;;;;5055871;28;20222;-70
2023/10/15 06:25:56;;;;;;;3.65;3.35;;;14.30;99.90;;;;;;5052798;28;20566;-70
2023/10/15 06:28:25;;;;;;;3.80;3.50;;;14.30;99.90;;;;;;5058988;28;20238;-70
2023/10/15 06:30:55;;;;;;;4.70;4.13;;;14.40;99.90;;;;;;5058539;28;20272;-71
2023/10/15 06:33:21;;;;;;;4.47;3.20;;;14.40;99.90;;;;;;5063684;28;20639;-71
2023/10/15 06:35:51;;;;;;;4.10;3.70;;;14.40;99.90;;;;;;5082290;28;20231;-72
2023/10/15 06:38:18;;;;;;;3.50;3.20;;;14.40;99.90;;;;;;5068018;28;20632;-71
2023/10/15 06:40:45;;;;;;;3.97;3.60;;;14.50;99.90;;;;;;5063746;28;21134;-71
2023/10/15 06:43:15;;;;;;;3.45;3.10;;;14.50;99.90;;;;;;5055448;28;20199;-72
2023/10/15 06:45:42;;;;;;;3.10;2.90;;;14.60;99.90;;;;;;5051892;28;20208;-71
2023/10/15 06:48:10;;;;;;;3.45;3.15;;;14.80;99.90;;;;;;5057384;28;20194;-71
2023/10/15 06:50:37;;;;;;;3.80;3.17;;;15.10;99.90;;;;;;5054093;28;20655;-70
2023/10/15 06:53:05;;;;;;;3.22;3.00;;;15.90;99.90;;;;;;5060647;28;20288;-72
2023/10/15 06:55:33;;;;;;;3.25;2.95;;;16.90;99.90;;;;;;5056344;28;20285;-71
2023/10/15 06:58:01;;;;;;;2.72;2.53;;;17.80;99.90;;;;;;5061352;28;20233;-72
2023/10/15 07:00:31;;;;;;;3.08;2.88;;;18.20;99.90;;;;;;5059698;28;20281;-70
2023/10/15 07:02:58;;;;;;;3.08;2.75;;;18.30;99.90;;;;;;5052458;28;20206;-71
2023/10/15 07:05:26;;;;;;;2.40;2.25;;;18.50;99.90;;;;;;5052296;28;20292;-72
2023/10/15 07:07:56;;;;;;;3.13;2.88;;;18.20;99.90;;;;;;5055384;28;20282;-71
2023/10/15 07:10:23;;;;;;;2.67;2.47;;;18.00;99.90;;;;;;5055626;28;20229;-73
2023/10/15 07:12:51;;;;;;;3.22;3.00;;;18.20;99.90;;;;;;5051975;28;20272;-71
2023/10/15 07:15:20;;;;;;;2.70;2.50;;;18.30;99.90;;;;;;5055447;28;20289;-71
2023/10/15 07:17:49;;;;;;;3.67;2.60;;;18.40;99.90;;;;;;5051897;28;20219;-71
2023/10/15 07:20:18;;;;;;;2.90;2.17;;;18.20;99.90;;;;;;5048862;28;20215;-73
2023/10/15 07:22:48;;;;;;;2.70;2.50;;;18.00;99.90;;;;;;5053314;28;20199;-70
2023/10/15 07:25:16;;;;;;;4.95;2.47;;;18.00;99.90;;;;;;5057128;28;20676;-70
2023/10/15 07:27:45;;;;;;;2.50;2.30;;;17.90;99.90;;;;;;5055390;28;20194;-69
2023/10/15 07:30:13;;;;;;;2.30;2.13;;;17.80;99.90;;;;;;5059597;28;20252;-70
2023/10/15 07:32:41;;;;;;;2.20;2.10;;;17.80;99.90;;;;;;5061024;28;20249;-70
2023/10/15 07:35:11;;;;;;;2.30;2.10;;;17.90;99.90;;;;;;5060160;28;20754;-70
2023/10/15 07:37:40;;;;;;;2.65;2.45;;;17.80;99.90;;;;;;5056493;28;20221;-70
2023/10/15 07:40:16;;;;;;;2.80;2.58;;;17.70;99.90;;;;;;5054353;28;20307;-70
2023/10/15 07:42:44;;;;;;;2.33;2.22;;;17.50;99.90;;;;;;5058384;28;20650;-71
2023/10/15 07:45:11;;;;;;;2.00;1.90;;;17.40;99.90;;;;;;5061629;28;20255;-70
2023/10/15 07:47:38;;;;;;;3.42;2.42;;;17.20;99.90;;;;;;5057472;28;20203;-70
2023/10/15 07:50:07;;;;;;;2.35;1.85;;;17.00;99.90;;;;;;5062695;28;20292;-70
2023/10/15 07:52:34;;;;;;;2.78;2.17;;;16.90;99.90;;;;;;5058234;28;20288;-70
2023/10/15 07:55:01;;;;;;;2.17;1.90;;;16.80;99.90;;;;;;5060599;28;20619;-71
2023/10/15 07:57:29;;;;;;;1.98;1.88;;;16.60;99.90;;;;;;5054645;28;20635;-71
2023/10/15 07:59:58;;;;;;;2.50;2.30;;;16.60;99.90;;;;;;5056803;28;20205;-71
2023/10/15 08:02:26;;;;;;;2.15;1.90;;;16.50;99.90;;;;;;5061223;28;20209;-71
2023/10/15 08:04:54;;;;;;;2.05;1.95;;;16.50;99.90;;;;;;5062259;28;20198;-71
2023/10/15 08:07:22;;;;;;;2.03;1.92;;;16.30;99.90;;;;;;5055005;28;20767;-70
2023/10/15 08:09:49;;;;;;;2.00;1.90;;;16.30;99.90;;;;;;5055339;28;20304;-70
2023/10/15 08:12:17;;;;;;;2.30;2.20;;;16.30;99.90;;;;;;5060001;28;20267;-70
2023/10/15 08:14:46;;;;;;;1.80;1.70;;;16.30;99.90;;;;;;5055626;28;20207;-71
2023/10/15 08:17:13;;;;;;;1.95;1.85;;;16.30;99.90;;;;;;5062497;28;20210;-70
2023/10/15 08:19:41;;;;;;;2.20;2.00;;;16.30;99.90;;;;;;5061243;28;20205;-70
2023/10/15 08:22:08;;;;;;;2.00;1.90;;;16.50;99.90;;;;;;5057383;28;20210;-71
2023/10/15 08:24:38;;;;;;;1.80;1.70;;;16.70;99.90;;;;;;5059530;28;20203;-71
2023/10/15 08:27:05;;;;;;;1.83;1.73;;;16.90;99.90;;;;;;5059591;28;20205;-72
2023/10/15 08:29:32;;;;;;;1.98;1.88;;;16.90;99.90;;;;;;5058001;28;20764;-71
2023/10/15 08:32:01;;;;;;;1.77;1.67;;;17.00;99.90;;;;;;5058201;28;20222;-70
2023/10/15 08:34:29;;;;;;;1.90;1.80;;;17.10;99.90;;;;;;5057451;28;20296;-71
2023/10/15 08:36:55;;;;;;;1.88;1.77;;;17.20;99.90;;;;;;5075827;28;20219;-70
2023/10/15 08:39:23;;;;;;;2.45;2.00;;;17.40;99.90;;;;;;5072159;28;20206;-71
2023/10/15 08:41:54;;;;;;;1.98;1.88;;;17.30;99.90;;;;;;5059833;28;20306;-70
2023/10/15 08:44:21;;;;;;;1.95;1.85;;;17.30;99.90;;;;;;5056733;28;20208;-70
2023/10/15 08:46:50;;;;;;;1.80;1.70;;;17.40;99.90;;;;;;5062716;28;20198;-71
2023/10/15 08:49:19;;;;;;;1.77;1.67;;;17.50;99.90;;;;;;5068871;28;20205;-70
2023/10/15 08:51:48;;;;;;;1.77;1.67;;;17.60;99.90;;;;;;5071658;28;20214;-74
2023/10/15 08:54:25;;;;;;;1.90;1.80;;;17.70;99.90;;;;;;5073048;28;20320;-71
2023/10/15 08:56:54;;;;;;;2.20;1.60;;;17.80;99.90;;;;;;5075790;28;20219;-70
2023/10/15 08:59:22;;;;;;;1.70;1.60;;;17.90;99.90;;;;;;5075659;28;20206;-71
2023/10/15 09:01:50;;;;;;;1.92;1.77;;;18.00;99.90;;;;;;5075566;28;20222;-71
2023/10/15 09:04:19;;;;;;;1.80;1.70;;;18.20;99.90;;;;;;5067276;28;20249;-71
2023/10/15 09:06:47;;;;;;;1.70;1.60;;;18.60;99.90;;;;;;5078297;28;20199;-71
2023/10/15 09:09:15;;;;;;;1.60;1.50;;;18.90;99.90;;;;;;5073375;28;20195;-71
2023/10/15 09:11:43;;;;;;;1.40;1.30;;;19.10;99.90;;;;;;5075358;28;20226;-73
2023/10/15 09:14:13;;;;;;;1.70;1.60;;;19.30;99.90;;;;;;5072451;28;20205;-71
2023/10/15 09:16:46;;;;;;;2.28;2.08;;;19.50;99.90;;;;;;5069448;28;20285;-70
2023/10/15 09:19:14;;;;;;;1.75;1.65;;;19.90;99.90;;;;;;5054362;28;20298;-71
2023/10/15 09:21:45;;;;;;;2.55;1.65;;;20.10;99.90;;;;;;5054757;28;20223;-70
2023/10/15 09:24:14;;;;;;;1.60;1.50;;;20.40;99.90;;;;;;5058856;28;20611;-74
2023/10/15 09:26:41;;;;;;;2.72;1.40;;;20.60;99.90;;;;;;5084595;28;20190;-75
2023/10/15 09:29:21;;;;;;;1.48;1.38;;;20.70;99.90;;;;;;5085290;28;20199;-70
2023/10/15 09:31:49;;;;;;;3.25;1.58;;;20.60;99.90;;;;;;5076728;28;20267;-70
2023/10/15 09:34:16;;;;;;;3.05;1.58;;;20.60;99.90;;;;;;5058691;28;20202;-71
2023/10/15 09:36:44;;;;;;;1.40;1.25;;;20.40;99.90;;;;;;5058544;28;20203;-70
2023/10/15 09:39:13;;;;;;;1.48;1.20;;;20.20;99.90;;;;;;5054195;28;20203;-70
2023/10/15 09:41:42;;;;;;;1.52;1.42;;;20.00;99.90;;;;;;5060856;28;20313;-71
2023/10/15 09:44:14;;;;;;;1.35;1.25;;;20.00;99.90;;;;;;5053108;28;20285;-71
2023/10/15 09:46:43;;;;;;;1.95;1.45;;;20.70;99.90;;;;;;5057490;28;20208;-71
2023/10/15 09:49:12;;;;;;;1.83;1.40;;;21.40;99.90;;;;;;5051685;28;20374;-71
2023/10/15 09:51:40;;;;;;;1.30;1.20;;;21.70;99.90;;;;;;5057593;28;20231;-71
2023/10/15 09:54:11;;;;;;;1.10;1.00;;;21.90;99.90;;;;;;5058391;28;20202;-71
2023/10/15 09:56:40;;;;;;;1.08;1.05;;;22.30;99.90;;;;;;5054811;28;20209;-71
2023/10/15 09:59:07;;;;;;;1.20;1.10;;;22.60;99.90;;;;;;5059902;28;20219;-71
2023/10/15 10:01:38;;;;;;;1.20;0.90;;;22.70;99.90;;;;;;5058075;28;20226;-71
2023/10/15 10:04:19;;;;;;;0.77;0.75;;;22.80;99.90;;;;;;5056575;28;23835;-70
2023/10/15 10:07:06;;;;;;;1.58;1.08;;;22.80;99.90;;;;;;5058662;28;20199;-70
2023/10/15 10:09:58;;;;;;;1.30;1.20;;;22.70;99.90;;;;;;5055199;28;20202;-71
2023/10/15 10:12:36;;;;;;;2.28;1.17;;;23.00;99.90;;;;;;5054327;28;20248;-70
2023/10/15 10:15:22;;;;;;;1.30;1.20;;;23.00;99.90;;;;;;5055287;28;20288;-74
2023/10/15 10:17:50;;;;;;;2.13;1.00;;;22.90;99.90;;;;;;5052654;28;20301;-70
2023/10/15 10:20:19;;;;;;;1.92;1.02;;;22.80;99.90;;;;;;5055992;28;20218;-70
2023/10/15 10:22:58;;;;;;;1.00;1.00;;;22.70;99.90;;;;;;5053910;28;20709;-70
2023/10/15 10:25:35;;;;;;;0.90;0.90;;;22.50;99.90;;;;;;5054966;28;20202;-70
2023/10/15 10:28:09;;;;;;;2.25;0.90;;;22.30;99.90;;;;;;5056543;28;20224;-70
2023/10/15 10:30:39;;;;;;;0.95;0.95;;;22.30;99.90;;;;;;5056738;28;20222;-70
2023/10/15 10:33:06;;;;;;;0.80;0.80;;;22.20;99.90;;;;;;5057393;28;20202;-70
2023/10/15 10:35:44;;;;;;;1.02;1.00;;;22.00;99.90;;;;;;5057230;28;20236;-71
2023/10/15 10:38:19;;;;;;;0.95;0.95;;;21.90;99.90;;;;;;5058133;28;20241;-72
2023/10/15 10:40:49;;;;;;;0.82;0.80;;;21.60;99.90;;;;;;5071168;28;20231;-73
2023/10/15 10:43:17;;;;;;;0.85;0.85;;;21.80;99.90;;;;;;5083037;28;20257;-75
2023/10/15 10:45:55;;;;;;;0.88;0.88;;;21.90;99.90;;;;;;5060704;28;20288;-73
2023/10/15 10:48:23;;;;;;;0.80;0.80;;;22.20;99.90;;;;;;5056261;28;21035;-73
2023/10/15 10:51:15;;;;;;;0.98;0.90;;;22.20;99.90;;;;;;5057061;28;20241;-72
2023/10/15 10:54:26;;;;;;;0.90;0.90;;;22.40;99.90;;;;;;5058906;28;20210;-73
2023/10/15 10:57:00;;;;;;;0.85;0.75;;;22.40;99.90;;;;;;5052762;28;20244;-72
2023/10/15 10:59:29;;;;;;;0.82;0.82;;;22.10;99.90;;;;;;5053240;28;20214;-73
2023/10/15 11:01:56;;;;;;;1.05;0.95;;;22.10;99.90;;;;;;5055372;28;20267;-71
2023/10/15 11:04:25;;;;;;;0.95;0.95;;;22.10;99.90;;;;;;5052784;28;20213;-72
2023/10/15 11:06:52;;;;;;;1.77;0.90;;;22.30;99.90;;;;;;5056902;28;20260;-72
2023/10/15 11:09:20;;;;;;;0.63;0.63;;;22.40;99.90;;;;;;5060449;28;20936;-72
2023/10/15 11:11:48;;;;;;;0.90;0.90;;;22.40;99.90;;;;;;5059990;28;20328;-71
2023/10/15 11:14:18;;;;;;;0.77;0.77;;;22.30;99.90;;;;;;5055821;28;20744;-71
2023/10/15 11:16:45;;;;;;;0.70;0.70;;;22.20;99.90;;;;;;5055174;28;20218;-72
2023/10/15 11:19:17;;;;;;;0.90;0.90;;;22.30;99.90;;;;;;5061068;28;20240;-71
2023/10/15 11:21:44;;;;;;;0.82;0.82;;;22.30;99.90;;;;;;5053538;28;20226;-71
2023/10/15 11:24:12;;;;;;;0.98;0.90;;;22.10;99.90;;;;;;5056133;28;20264;-71
2023/10/15 11:26:41;;;;;;;0.90;0.90;;;22.00;99.90;;;;;;5056198;28;20240;-72
2023/10/15 11:29:10;;;;;;;0.73;0.73;;;22.00;99.90;;;;;;5056973;28;20311;-71
2023/10/15 11:31:42;;;;;;;0.90;0.90;;;22.00;99.90;;;;;;5058096;28;20301;-71
2023/10/15 11:34:10;;;;;;;0.80;0.73;;;22.20;99.90;;;;;;5055961;28;20202;-71
2023/10/15 11:36:38;;;;;;;1.65;1.13;;;22.10;99.90;;;;;;5055707;28;20282;-71
2023/10/15 11:39:09;;;;;;;0.80;0.80;;;21.90;99.90;;;;;;5060406;28;20230;-70
2023/10/15 11:41:38;;;;;;;0.85;0.85;;;22.00;99.90;;;;;;5058741;28;20742;-71
2023/10/15 11:44:06;;;;;;;0.70;0.70;;;22.00;99.90;;;;;;5057846;28;20206;-72
2023/10/15 11:46:36;;;;;;;0.90;0.90;;;22.10;99.90;;;;;;5062630;28;20753;-71
2023/10/15 11:49:04;;;;;;;0.80;0.80;;;22.10;99.90;;;;;;5060241;28;20218;-74
2023/10/15 11:51:31;;;;;;;1.00;0.80;;;22.00;99.90;;;;;;5059342;28;20213;-71
2023/10/15 11:54:01;;;;;;;0.80;0.70;;;22.10;99.90;;;;;;5057690;28;20238;-70
2023/10/15 11:56:29;;;;;;;0.70;0.70;;;22.20;99.90;;;;;;5056066;28;22452;-70
2023/10/15 11:58:57;;;;;;;0.63;0.63;;;22.40;99.90;;;;;;5056370;28;20210;-71
2023/10/15 12:01:26;;;;;;;0.60;0.60;;;22.60;99.90;;;;;;5057255;28;20221;-70
2023/10/15 12:03:56;;;;;;;0.80;0.80;;;22.60;99.90;;;;;;5062237;28;20202;-71
2023/10/15 12:06:24;;;;;;;0.70;0.70;;;22.70;99.90;;;;;;5058642;28;20206;-70
2023/10/15 12:08:52;;;;;;;1.20;1.10;;;22.90;99.90;;;;;;5059910;28;20199;-71
2023/10/15 12:11:19;;;;;;;0.50;0.50;;;22.90;99.90;;;;;;5059845;28;20214;-71
2023/10/15 12:13:47;;;;;;;1.38;0.70;;;22.80;99.90;;;;;;5056970;28;20195;-71
2023/10/15 12:16:14;;;;;;;0.80;0.80;;;22.80;99.90;;;;;;5061989;28;20198;-71
2023/10/15 12:18:41;;;;;;;1.55;0.70;;;22.70;99.90;;;;;;5059976;28;20291;-71
2023/10/15 12:21:08;;;;;;;0.70;0.70;;;22.70;99.90;;;;;;5057141;28;20221;-71
2023/10/15 12:23:36;;;;;;;0.60;0.60;;;22.70;99.90;;;;;;5059523;28;20194;-71
2023/10/15 12:26:07;;;;;;;0.68;0.68;;;22.70;99.90;;;;;;5059625;28;20215;-71
2023/10/15 12:28:43;;;;;;;0.50;0.50;;;22.80;99.90;;;;;;5060497;28;20206;-71
2023/10/15 12:31:10;;;;;;;0.50;0.50;;;22.80;99.90;;;;;;5062108;28;20222;-71
2023/10/15 12:33:38;;;;;;;0.60;0.60;;;22.90;99.90;;;;;;5060531;28;20206;-71
2023/10/15 12:36:09;;;;;;;0.60;0.60;;;23.00;99.90;;;;;;5061451;28;20217;-71
2023/10/15 12:38:39;;;;;;;1.38;0.80;;;23.10;99.90;;;;;;5058775;28;20218;-71
2023/10/15 12:41:09;;;;;;;3.28;0.60;;;23.10;99.90;;;;;;5067670;28;20305;-72
2023/10/15 12:43:36;;;;;;;1.58;0.60;;;23.20;99.90;;;;;;5087365;28;20201;-71
2023/10/15 12:46:03;;;;;;;0.63;0.63;;;23.60;99.90;;;;;;5065773;28;20195;-70
2023/10/15 12:48:30;;;;;;;0.70;0.60;;;23.90;99.90;;;;;;5056801;28;20210;-72
2023/10/15 12:50:58;;;;;;;0.60;0.60;;;24.10;99.90;;;;;;5058343;28;20217;-71
2023/10/15 12:53:25;;;;;;;0.60;0.60;;;24.30;99.90;;;;;;5056911;28;20589;-71
2023/10/15 12:55:54;;;;;;;0.52;0.50;;;24.40;99.90;;;;;;5059497;28;20244;-71
2023/10/15 12:58:21;;;;;;;0.50;0.50;;;24.40;99.90;;;;;;5061465;28;20319;-71
2023/10/15 13:00:51;;;;;;;0.40;0.40;;;24.50;99.90;;;;;;5059322;28;20922;-71